Time;durP1;ratioP1;P1;durP2;ratioP2;P2;SDS_P1;SDS_P2;PMS_P1;PMS_P2;Temp;Humidity;BMP_temperature;BMP_pressure;BME280_temperature;BME280_humidity;BME280_pressure;Samples;Min_cycle;Max_cycle;Signal;HPM_P1;HPM_P2
2020/12/10 00:00:27;;;;;;;29.40;17.25;;;1.70;99.90;;;;;;5036616;28;20045;-84
2020/12/10 00:02:53;;;;;;;27.40;16.63;;;1.70;99.90;;;;;;5034084;28;20088;-84
2020/12/10 00:05:19;;;;;;;27.30;16.55;;;1.70;99.90;;;;;;5033291;28;20061;-83
2020/12/10 00:07:46;;;;;;;28.23;17.88;;;1.80;99.90;;;;;;5033406;28;20604;-83
2020/12/10 00:10:12;;;;;;;26.73;17.90;;;1.80;99.90;;;;;;5033716;28;20136;-83
2020/12/10 00:12:40;;;;;;;27.00;17.67;;;1.80;99.90;;;;;;5034939;28;20136;-83
2020/12/10 00:15:07;;;;;;;27.00;17.58;;;1.80;99.90;;;;;;5033639;28;20045;-84
2020/12/10 00:17:34;;;;;;;29.33;17.17;;;1.80;99.90;;;;;;5034111;28;20120;-84
2020/12/10 00:20:01;;;;;;;30.70;18.20;;;1.80;99.90;;;;;;5033502;28;20073;-83
2020/12/10 00:22:27;;;;;;;29.55;16.70;;;1.90;99.90;;;;;;5033321;28;20056;-83
2020/12/10 00:24:53;;;;;;;29.25;17.48;;;1.80;99.90;;;;;;5033488;28;20052;-83
2020/12/10 00:27:26;;;;;;;23.70;15.88;;;1.80;99.90;;;;;;5033306;28;20111;-84
2020/12/10 00:29:57;;;;;;;30.65;16.95;;;1.80;99.90;;;;;;5036509;28;20052;-84
2020/12/10 00:32:25;;;;;;;21.30;14.68;;;1.90;99.90;;;;;;5035517;28;20099;-84
2020/12/10 00:34:55;;;;;;;23.60;15.20;;;1.90;99.90;;;;;;5034514;28;20060;-84
2020/12/10 00:37:22;;;;;;;22.10;14.70;;;1.90;99.90;;;;;;5034897;28;20107;-84
2020/12/10 00:39:48;;;;;;;26.10;15.32;;;1.90;99.90;;;;;;5034729;28;20077;-84
2020/12/10 00:42:15;;;;;;;24.00;15.90;;;1.90;99.90;;;;;;5035680;28;20153;-84
2020/12/10 00:44:41;;;;;;;24.17;16.08;;;1.90;99.90;;;;;;5034415;28;20069;-84
2020/12/10 00:47:08;;;;;;;26.40;16.42;;;1.90;99.90;;;;;;5034683;28;20481;-84
2020/12/10 00:49:34;;;;;;;24.35;15.48;;;1.90;99.90;;;;;;5034056;28;20058;-84
2020/12/10 00:52:00;;;;;;;28.15;17.00;;;1.90;99.90;;;;;;5033742;28;20084;-84
2020/12/10 00:54:27;;;;;;;26.80;15.77;;;1.90;99.90;;;;;;5033798;28;20050;-84
2020/12/10 00:56:53;;;;;;;24.00;15.88;;;1.90;99.90;;;;;;5035308;28;20487;-84
2020/12/10 00:59:19;;;;;;;21.85;13.85;;;2.00;99.90;;;;;;5033586;28;20073;-84
2020/12/10 01:01:46;;;;;;;22.02;15.18;;;2.00;99.90;;;;;;5034682;28;20054;-84
2020/12/10 01:04:13;;;;;;;23.13;14.98;;;2.00;99.90;;;;;;5034203;28;20072;-85
2020/12/10 01:06:40;;;;;;;26.90;16.23;;;2.00;99.90;;;;;;5033199;28;20103;-82
2020/12/10 01:09:08;;;;;;;24.33;14.40;;;2.00;99.90;;;;;;5033490;28;20096;-82
2020/12/10 01:11:35;;;;;;;22.88;15.43;;;1.90;99.90;;;;;;5034258;28;20583;-82
2020/12/10 01:14:02;;;;;;;23.75;14.48;;;1.90;99.90;;;;;;5033202;28;20130;-84
2020/12/10 01:16:28;;;;;;;20.80;13.77;;;1.90;99.90;;;;;;5033044;28;20057;-84
2020/12/10 01:18:55;;;;;;;23.88;14.90;;;1.90;99.90;;;;;;5033009;28;20060;-82
2020/12/10 01:21:31;;;;;;;23.40;15.05;;;1.90;99.90;;;;;;5032692;28;20136;-82
2020/12/10 01:23:59;;;;;;;24.88;15.30;;;1.80;99.90;;;;;;5032522;28;20067;-84
2020/12/10 01:26:28;;;;;;;27.27;15.55;;;1.80;99.90;;;;;;5032719;28;20075;-85
2020/12/10 01:28:55;;;;;;;23.05;14.30;;;1.70;99.90;;;;;;5031503;28;20132;-84
2020/12/10 01:31:22;;;;;;;23.63;13.85;;;1.80;99.90;;;;;;5032573;28;20053;-83
2020/12/10 01:33:49;;;;;;;23.33;14.80;;;1.70;99.90;;;;;;5033885;28;20107;-84
2020/12/10 01:36:19;;;;;;;20.90;13.93;;;1.70;99.90;;;;;;5032293;28;20425;-84
2020/12/10 01:38:46;;;;;;;20.20;13.73;;;1.60;99.90;;;;;;5033630;28;20049;-82
2020/12/10 01:41:12;;;;;;;21.67;13.98;;;1.60;99.90;;;;;;5033525;28;20049;-84
2020/12/10 01:43:39;;;;;;;26.25;14.73;;;1.50;99.90;;;;;;5032707;28;20108;-82
2020/12/10 01:46:06;;;;;;;28.60;15.57;;;1.50;99.90;;;;;;5033454;28;20136;-82
2020/12/10 01:48:33;;;;;;;21.70;14.52;;;1.60;99.90;;;;;;5032465;28;20058;-84
2020/12/10 01:51:00;;;;;;;31.40;16.05;;;1.60;99.90;;;;;;5033205;28;20141;-84
2020/12/10 01:53:27;;;;;;;24.95;15.68;;;1.60;99.90;;;;;;5033143;28;20513;-84
2020/12/10 01:55:53;;;;;;;23.42;14.68;;;1.70;99.90;;;;;;5031774;28;20490;-84
2020/12/10 01:58:20;;;;;;;28.83;16.80;;;1.70;99.90;;;;;;5031759;28;20494;-84
2020/12/10 02:00:46;;;;;;;27.05;15.75;;;1.70;99.90;;;;;;5031693;28;20096;-84
2020/12/10 02:03:13;;;;;;;30.35;16.92;;;1.80;99.90;;;;;;5032979;28;20153;-84
2020/12/10 02:05:46;;;;;;;27.00;16.10;;;1.80;99.90;;;;;;5032731;28;20041;-84
2020/12/10 02:08:14;;;;;;;24.00;14.52;;;1.80;99.90;;;;;;5031870;28;20053;-84
2020/12/10 02:10:41;;;;;;;22.70;14.77;;;1.80;99.90;;;;;;5032683;28;20107;-84
2020/12/10 02:13:07;;;;;;;23.02;14.90;;;1.90;99.90;;;;;;5032526;28;20552;-84
2020/12/10 02:15:34;;;;;;;27.58;15.93;;;1.90;99.90;;;;;;5031230;28;20145;-84
2020/12/10 02:18:05;;;;;;;25.52;15.25;;;1.90;99.90;;;;;;5033917;28;20114;-83
2020/12/10 02:20:32;;;;;;;23.27;14.52;;;2.00;99.90;;;;;;5035113;28;20045;-85
2020/12/10 02:23:06;;;;;;;22.80;14.82;;;2.00;99.90;;;;;;5033061;28;20509;-83
2020/12/10 02:25:33;;;;;;;23.02;14.73;;;2.00;99.90;;;;;;5032829;28;20136;-83
2020/12/10 02:28:01;;;;;;;19.58;13.07;;;2.00;99.90;;;;;;5034388;28;20065;-83
2020/12/10 02:30:28;;;;;;;25.42;15.13;;;2.00;99.90;;;;;;5032753;28;20077;-82
2020/12/10 02:33:02;;;;;;;27.20;15.20;;;2.00;99.90;;;;;;5033534;28;20050;-83
2020/12/10 02:35:30;;;;;;;23.33;13.98;;;1.90;99.90;;;;;;5032618;28;20514;-83
2020/12/10 02:37:58;;;;;;;22.13;13.52;;;1.90;99.90;;;;;;5033673;28;20042;-82
2020/12/10 02:40:27;;;;;;;23.10;13.90;;;1.90;99.90;;;;;;5033346;28;20077;-82
2020/12/10 02:42:55;;;;;;;23.00;13.93;;;1.90;99.90;;;;;;5036180;28;20048;-84
2020/12/10 02:45:22;;;;;;;29.88;16.15;;;1.90;99.90;;;;;;5035888;28;20050;-85
2020/12/10 02:47:48;;;;;;;28.58;14.63;;;1.80;99.90;;;;;;5036196;28;20077;-82
2020/12/10 02:50:15;;;;;;;26.40;14.68;;;1.80;99.90;;;;;;5035569;28;20497;-82
2020/12/10 02:52:41;;;;;;;25.50;14.30;;;1.70;99.90;;;;;;5037167;28;20085;-82
2020/12/10 02:55:08;;;;;;;28.08;14.35;;;1.90;99.90;;;;;;5035704;28;20089;-82
2020/12/10 02:57:34;;;;;;;23.17;14.35;;;1.90;99.90;;;;;;5035863;28;20128;-82
2020/12/10 03:00:01;;;;;;;28.63;13.98;;;2.00;99.90;;;;;;5035655;28;20476;-84
2020/12/10 03:02:27;;;;;;;26.10;13.45;;;2.00;99.90;;;;;;5035133;28;20133;-85
2020/12/10 03:04:53;;;;;;;26.67;14.38;;;2.00;99.90;;;;;;5035172;28;20053;-82
2020/12/10 03:07:19;;;;;;;26.80;14.77;;;1.90;99.90;;;;;;5036052;28;20069;-84
2020/12/10 03:09:46;;;;;;;30.73;13.95;;;1.90;99.90;;;;;;5036474;28;20046;-82
2020/12/10 03:12:12;;;;;;;28.23;14.07;;;1.90;99.90;;;;;;5035266;28;20065;-82
2020/12/10 03:14:38;;;;;;;24.42;14.60;;;1.90;99.90;;;;;;5036056;28;20049;-82
2020/12/10 03:17:05;;;;;;;24.85;13.68;;;1.90;99.90;;;;;;5034926;28;20088;-82
2020/12/10 03:19:31;;;;;;;27.83;14.10;;;1.90;99.90;;;;;;5034513;28;20049;-82
2020/12/10 03:21:58;;;;;;;24.13;13.52;;;1.90;99.90;;;;;;5034766;28;20092;-82
2020/12/10 03:24:24;;;;;;;23.80;13.57;;;2.00;99.90;;;;;;5034549;28;20049;-85
2020/12/10 03:26:50;;;;;;;28.25;14.13;;;2.00;99.90;;;;;;5034651;28;20422;-84
2020/12/10 03:29:17;;;;;;;28.88;14.27;;;2.00;99.90;;;;;;5034511;28;20120;-85
2020/12/10 03:31:43;;;;;;;25.63;13.52;;;2.00;99.90;;;;;;5034200;28;20146;-84
2020/12/10 03:34:09;;;;;;;27.52;13.63;;;2.00;99.90;;;;;;5040775;28;20097;-83
2020/12/10 03:36:50;;;;;;;25.83;13.27;;;2.00;99.90;;;;;;5059950;28;20029;-82
2020/12/10 03:39:21;;;;;;;33.88;14.77;;;2.10;99.90;;;;;;5059861;28;20033;-84
2020/12/10 03:41:48;;;;;;;34.03;14.57;;;2.00;99.90;;;;;;5059188;28;20125;-85
2020/12/10 03:44:15;;;;;;;32.58;15.07;;;1.90;99.90;;;;;;5038456;28;20076;-85
2020/12/10 03:46:42;;;;;;;25.40;13.55;;;1.90;99.90;;;;;;5038328;28;20045;-85
2020/12/10 03:49:09;;;;;;;31.77;13.90;;;1.90;99.90;;;;;;5037475;28;20108;-83
2020/12/10 03:51:36;;;;;;;31.40;14.63;;;1.80;99.90;;;;;;5036144;28;20128;-85
2020/12/10 03:54:03;;;;;;;32.22;14.23;;;1.90;99.90;;;;;;5036669;28;20073;-85
2020/12/10 03:56:31;;;;;;;34.92;16.40;;;2.00;99.90;;;;;;5037208;28;20136;-85
2020/12/10 03:58:59;;;;;;;34.45;16.60;;;2.10;99.90;;;;;;5037595;28;20059;-85
2020/12/10 04:01:26;;;;;;;43.08;17.40;;;2.10;99.90;;;;;;5037706;28;20457;-85
2020/12/10 04:03:54;;;;;;;38.70;16.25;;;2.10;99.90;;;;;;5037917;28;20096;-84
2020/12/10 04:06:20;;;;;;;36.88;16.27;;;2.00;99.90;;;;;;5036620;28;20080;-82
2020/12/10 04:08:47;;;;;;;37.33;14.90;;;2.00;99.90;;;;;;5036409;28;20056;-85
2020/12/10 04:11:14;;;;;;;35.30;16.20;;;2.00;99.90;;;;;;5035431;28;20136;-85
2020/12/10 04:13:40;;;;;;;39.50;16.17;;;2.00;99.90;;;;;;5035497;28;20165;-85
2020/12/10 04:16:07;;;;;;;32.85;16.13;;;2.10;99.90;;;;;;5038188;28;20402;-85
2020/12/10 04:18:37;;;;;;;36.25;15.60;;;2.10;99.90;;;;;;5037487;28;20053;-85
2020/12/10 04:21:04;;;;;;;28.60;14.45;;;2.20;99.90;;;;;;5035031;28;20045;-84
2020/12/10 04:23:30;;;;;;;36.90;16.05;;;2.20;99.90;;;;;;5036788;28;20136;-82
2020/12/10 04:25:57;;;;;;;35.10;15.40;;;2.20;99.90;;;;;;5037128;28;20050;-83
2020/12/10 04:28:23;;;;;;;38.25;16.45;;;2.20;99.90;;;;;;5036121;28;20124;-85
2020/12/10 04:30:49;;;;;;;28.15;14.43;;;2.10;99.90;;;;;;5036035;28;20045;-85
2020/12/10 04:33:16;;;;;;;33.85;14.57;;;2.00;99.90;;;;;;5036286;28;20163;-84
2020/12/10 04:35:42;;;;;;;33.00;15.75;;;2.10;99.90;;;;;;5037159;28;20041;-85
2020/12/10 04:38:09;;;;;;;43.60;16.20;;;2.10;99.90;;;;;;5035479;28;20124;-85
2020/12/10 04:40:36;;;;;;;30.20;14.25;;;2.10;99.90;;;;;;5036406;28;20077;-82
2020/12/10 04:43:05;;;;;;;36.50;14.55;;;2.10;99.90;;;;;;5036857;28;20050;-85
2020/12/10 04:45:31;;;;;;;30.27;14.20;;;2.20;99.90;;;;;;5036842;28;20149;-84
2020/12/10 04:47:59;;;;;;;27.90;14.00;;;2.20;99.90;;;;;;5036512;28;20053;-85
2020/12/10 04:50:27;;;;;;;30.23;13.27;;;2.10;99.90;;;;;;5034948;28;20080;-85
2020/12/10 04:52:55;;;;;;;25.67;12.60;;;2.10;99.90;;;;;;5035286;28;20520;-84
2020/12/10 04:55:22;;;;;;;24.58;12.15;;;2.00;99.90;;;;;;5036458;28;20045;-82
2020/12/10 04:57:52;;;;;;;24.85;12.85;;;2.10;99.90;;;;;;5035219;28;20113;-82
2020/12/10 05:00:19;;;;;;;22.13;12.30;;;2.20;99.90;;;;;;5036085;28;20433;-85
2020/12/10 05:02:45;;;;;;;27.48;12.82;;;2.20;99.90;;;;;;5035603;28;20054;-85
2020/12/10 05:05:21;;;;;;;24.10;11.68;;;2.20;99.90;;;;;;5036690;28;20496;-85
2020/12/10 05:07:48;;;;;;;28.38;12.07;;;2.10;99.90;;;;;;5034877;28;20053;-85
2020/12/10 05:10:16;;;;;;;24.33;11.43;;;2.10;99.90;;;;;;5034656;28;20429;-85
2020/12/10 05:12:44;;;;;;;21.10;11.27;;;2.00;99.90;;;;;;5034582;28;20103;-85
2020/12/10 05:15:11;;;;;;;21.98;11.30;;;2.00;99.90;;;;;;5035797;28;20046;-82
2020/12/10 05:17:37;;;;;;;21.67;11.60;;;2.10;99.90;;;;;;5034589;28;20153;-85
2020/12/10 05:20:06;;;;;;;25.10;12.48;;;2.10;99.90;;;;;;5034799;28;20049;-85
2020/12/10 05:22:33;;;;;;;26.98;12.18;;;2.20;99.90;;;;;;5034205;28;20128;-85
2020/12/10 05:25:04;;;;;;;22.73;12.18;;;2.20;99.90;;;;;;5035688;28;20060;-85
2020/12/10 05:27:32;;;;;;;23.27;12.23;;;2.20;99.90;;;;;;5035800;28;20054;-82
2020/12/10 05:29:58;;;;;;;24.38;12.18;;;2.20;99.90;;;;;;5035416;28;20053;-84
2020/12/10 05:32:33;;;;;;;29.92;13.55;;;2.20;99.90;;;;;;5032306;28;20504;-84
2020/12/10 05:35:14;;;;;;;24.42;12.70;;;2.20;99.90;;;;;;5032468;28;20425;-84
2020/12/10 05:37:41;;;;;;;28.80;13.15;;;2.20;99.90;;;;;;5031856;28;20049;-84
2020/12/10 05:40:07;;;;;;;24.45;12.50;;;2.20;99.90;;;;;;5033445;28;20053;-84
2020/12/10 05:42:39;;;;;;;23.33;11.82;;;2.20;99.90;;;;;;5033353;28;20177;-84
2020/12/10 05:45:10;;;;;;;23.63;11.45;;;2.20;99.90;;;;;;5033475;28;20080;-85
2020/12/10 05:47:57;;;;;;;23.55;11.25;;;2.30;99.90;;;;;;5032247;28;20080;-84
2020/12/10 05:50:26;;;;;;;24.27;12.00;;;2.30;99.90;;;;;;5033146;28;20056;-85
2020/12/10 05:53:11;;;;;;;25.45;12.02;;;2.30;99.90;;;;;;5032194;28;20049;-85
2020/12/10 05:55:41;;;;;;;21.63;11.57;;;2.40;99.90;;;;;;5034223;28;20060;-85
2020/12/10 05:58:08;;;;;;;26.65;12.32;;;2.40;99.90;;;;;;5034350;28;20141;-85
2020/12/10 06:00:36;;;;;;;22.10;11.55;;;2.40;99.90;;;;;;5034221;28;20049;-85
2020/12/10 06:03:04;;;;;;;20.75;11.55;;;2.40;99.90;;;;;;5037572;28;20113;-83
2020/12/10 06:05:30;;;;;;;23.20;11.57;;;2.40;99.90;;;;;;5045164;28;20076;-85
2020/12/10 06:08:05;;;;;;;24.90;12.75;;;2.40;99.90;;;;;;5044335;28;20475;-85
2020/12/10 06:10:42;;;;;;;25.95;12.00;;;2.30;99.90;;;;;;5044144;28;20045;-85
2020/12/10 06:13:10;;;;;;;24.05;11.90;;;2.40;99.90;;;;;;5043527;28;20136;-85
2020/12/10 06:15:37;;;;;;;22.77;11.77;;;2.30;99.90;;;;;;5045166;28;20060;-85
2020/12/10 06:18:11;;;;;;;22.88;11.95;;;2.40;99.90;;;;;;5046671;28;20057;-84
2020/12/10 06:20:43;;;;;;;29.48;13.82;;;2.40;99.90;;;;;;5044297;28;20064;-85
2020/12/10 06:23:30;;;;;;;31.83;14.45;;;2.30;99.90;;;;;;5043755;28;20413;-85
2020/12/10 06:25:58;;;;;;;32.63;16.55;;;2.40;99.90;;;;;;5043074;28;20080;-85
2020/12/10 06:28:26;;;;;;;26.50;13.63;;;2.40;99.90;;;;;;5044674;28;20080;-85
2020/12/10 06:31:05;;;;;;;26.38;13.02;;;2.40;99.90;;;;;;5043684;28;20103;-85
2020/12/10 06:33:43;;;;;;;20.13;11.25;;;2.40;99.90;;;;;;5042655;28;20076;-85
2020/12/10 06:36:28;;;;;;;19.65;10.45;;;2.50;99.90;;;;;;5043665;28;20045;-85
2020/12/10 06:38:56;;;;;;;16.10;9.10;;;2.40;99.90;;;;;;5041966;28;20084;-84
2020/12/10 06:41:23;;;;;;;28.25;12.02;;;2.40;99.90;;;;;;5039440;28;20084;-84
2020/12/10 06:43:50;;;;;;;24.60;11.52;;;2.40;99.90;;;;;;5039817;28;20441;-84
2020/12/10 06:46:17;;;;;;;36.38;15.15;;;2.20;99.90;;;;;;5039816;28;20144;-84
2020/12/10 06:48:45;;;;;;;43.25;16.63;;;2.20;99.90;;;;;;5041029;28;20084;-84
2020/12/10 06:51:15;;;;;;;53.10;19.38;;;2.20;99.90;;;;;;5039873;28;20084;-84
2020/12/10 06:54:02;;;;;;;53.28;20.58;;;2.20;99.90;;;;;;5041292;28;20057;-84
2020/12/10 06:56:29;;;;;;;96.97;39.15;;;2.10;99.90;;;;;;5040468;28;20089;-84
2020/12/10 06:58:59;;;;;;;85.07;31.08;;;2.20;99.90;;;;;;5039202;28;20494;-84
2020/12/10 07:01:38;;;;;;;93.05;27.42;;;2.20;99.90;;;;;;5038409;28;20077;-84
2020/12/10 07:06:55;;;;;;;70.55;23.35;;;2.20;99.90;;;;;;5041011;28;20053;-84
2020/12/10 07:09:21;;;;;;;70.80;24.13;;;2.20;99.90;;;;;;5038749;28;20056;-85
2020/12/10 07:11:48;;;;;;;76.68;24.45;;;2.20;99.90;;;;;;5038977;28;20061;-84
2020/12/10 07:14:31;;;;;;;74.88;22.92;;;2.30;99.90;;;;;;5038983;28;20057;-84
2020/12/10 07:16:57;;;;;;;58.53;20.20;;;2.30;99.90;;;;;;5039151;28;20121;-82
2020/12/10 07:19:24;;;;;;;61.88;21.50;;;2.40;99.90;;;;;;5038800;28;20185;-82
2020/12/10 07:21:51;;;;;;;66.25;21.60;;;2.40;99.90;;;;;;5038600;28;20120;-84
2020/12/10 07:24:17;;;;;;;55.78;19.23;;;2.50;99.90;;;;;;5036751;28;20052;-85
2020/12/10 07:26:44;;;;;;;42.20;17.08;;;2.50;99.90;;;;;;5035879;28;20045;-81
2020/12/10 07:29:10;;;;;;;38.78;16.23;;;2.60;99.90;;;;;;5034004;28;20065;-84
2020/12/10 07:31:36;;;;;;;31.25;15.45;;;2.60;99.90;;;;;;5034775;28;20087;-84
2020/12/10 07:34:03;;;;;;;35.30;16.02;;;2.70;99.90;;;;;;5034822;28;20077;-84
2020/12/10 07:36:31;;;;;;;25.15;14.27;;;2.70;99.90;;;;;;5035021;28;20137;-84
2020/12/10 07:38:58;;;;;;;27.30;14.15;;;2.70;99.90;;;;;;5034609;28;20232;-84
2020/12/10 07:41:25;;;;;;;27.48;15.32;;;2.80;99.90;;;;;;5036064;28;20052;-84
2020/12/10 07:43:53;;;;;;;23.95;14.82;;;2.80;99.90;;;;;;5036350;28;20460;-84
2020/12/10 07:46:20;;;;;;;23.95;13.25;;;2.80;99.90;;;;;;5035130;28;20063;-84
2020/12/10 07:48:48;;;;;;;23.58;12.43;;;2.90;99.90;;;;;;5041600;28;20049;-85
2020/12/10 07:51:22;;;;;;;19.38;11.63;;;2.80;99.90;;;;;;5044352;28;20103;-85
2020/12/10 07:53:48;;;;;;;18.90;11.05;;;2.80;99.90;;;;;;5042797;28;20064;-85
2020/12/10 07:56:22;;;;;;;21.83;13.45;;;2.80;99.90;;;;;;5042373;28;20088;-85
2020/12/10 07:59:08;;;;;;;18.38;11.52;;;2.80;99.90;;;;;;5043337;28;20521;-85
2020/12/10 08:01:50;;;;;;;18.55;11.65;;;2.90;99.90;;;;;;5040599;28;20529;-85
2020/12/10 08:04:19;;;;;;;23.83;15.32;;;2.90;99.90;;;;;;5043899;28;20430;-85
2020/12/10 08:06:49;;;;;;;24.25;14.05;;;3.00;99.90;;;;;;5041376;28;20060;-85
2020/12/10 08:09:16;;;;;;;24.75;11.75;;;3.00;99.90;;;;;;5040317;28;20088;-85
2020/12/10 08:11:54;;;;;;;16.83;11.15;;;3.00;99.90;;;;;;5041592;28;20517;-85
2020/12/10 08:14:30;;;;;;;22.33;12.57;;;3.00;99.90;;;;;;5039696;28;20073;-84
2020/12/10 08:16:58;;;;;;;30.58;17.92;;;3.00;99.90;;;;;;5040325;28;20053;-84
2020/12/10 08:19:27;;;;;;;26.38;17.42;;;3.00;99.90;;;;;;5039749;28;20061;-84
2020/12/10 08:21:54;;;;;;;31.45;17.13;;;3.00;99.90;;;;;;5039417;28;20045;-85
2020/12/10 08:24:36;;;;;;;30.27;16.70;;;3.10;99.90;;;;;;5038055;28;20046;-85
2020/12/10 08:27:03;;;;;;;22.90;12.23;;;3.10;99.90;;;;;;5037404;28;20045;-84
2020/12/10 08:29:29;;;;;;;22.73;11.07;;;3.20;99.90;;;;;;5037083;28;20077;-84
2020/12/10 08:32:09;;;;;;;20.15;10.30;;;3.20;99.90;;;;;;5038320;28;20116;-84
2020/12/10 08:34:36;;;;;;;24.67;11.07;;;3.30;99.90;;;;;;5036398;28;20471;-84
2020/12/10 08:37:08;;;;;;;23.60;10.43;;;3.30;99.90;;;;;;5037981;28;20050;-84
2020/12/10 08:39:35;;;;;;;20.92;8.88;;;3.30;99.90;;;;;;5035103;28;20061;-82
2020/12/10 08:42:03;;;;;;;26.15;9.43;;;3.20;99.90;;;;;;5037281;28;20076;-84
2020/12/10 08:44:51;;;;;;;28.73;9.02;;;3.30;99.90;;;;;;5037637;28;20172;-84
2020/12/10 08:47:33;;;;;;;23.85;9.02;;;3.30;99.90;;;;;;5036111;28;20103;-84
2020/12/10 08:50:29;;;;;;;20.50;8.13;;;3.30;99.90;;;;;;5036377;28;20490;-84
2020/12/10 08:52:59;;;;;;;27.50;9.45;;;3.30;99.90;;;;;;5035583;28;20457;-84
2020/12/10 08:55:26;;;;;;;24.85;9.00;;;3.30;99.90;;;;;;5037055;28;20071;-81
2020/12/10 08:57:53;;;;;;;25.77;8.88;;;3.40;99.90;;;;;;5035362;28;20057;-84
2020/12/10 09:00:19;;;;;;;24.95;9.23;;;3.40;99.90;;;;;;5035169;28;20075;-84
2020/12/10 09:02:45;;;;;;;22.17;9.27;;;3.40;99.90;;;;;;5037217;28;20482;-81
2020/12/10 09:05:11;;;;;;;29.65;11.15;;;3.50;99.90;;;;;;5034778;28;20107;-84
2020/12/10 09:07:37;;;;;;;23.92;9.02;;;3.50;99.90;;;;;;5037104;28;20057;-84
2020/12/10 09:10:06;;;;;;;20.30;9.90;;;3.60;99.90;;;;;;5035149;28;20129;-84
2020/12/10 09:12:33;;;;;;;20.45;9.32;;;3.60;99.90;;;;;;5034797;28;20069;-84
2020/12/10 09:14:59;;;;;;;25.95;10.10;;;3.70;99.90;;;;;;5034678;28;20049;-84
2020/12/10 09:17:29;;;;;;;24.75;10.43;;;3.80;99.90;;;;;;5036021;28;20057;-83
2020/12/10 09:19:55;;;;;;;21.83;10.93;;;3.80;99.90;;;;;;5033973;28;20057;-83
2020/12/10 09:22:21;;;;;;;22.23;10.10;;;3.70;99.90;;;;;;5033739;28;20463;-83
2020/12/10 09:24:48;;;;;;;23.70;10.05;;;3.70;99.90;;;;;;5035117;28;20148;-83
2020/12/10 09:27:20;;;;;;;31.52;11.32;;;3.70;99.90;;;;;;5033438;28;20132;-83
2020/12/10 09:29:47;;;;;;;22.92;10.43;;;3.60;99.90;;;;;;5033923;28;20084;-83
2020/12/10 09:32:14;;;;;;;22.55;10.30;;;3.70;99.90;;;;;;5033127;28;20076;-83
2020/12/10 09:34:40;;;;;;;27.02;11.43;;;3.70;99.90;;;;;;5032930;28;20045;-83
2020/12/10 09:37:07;;;;;;;25.25;10.52;;;3.70;99.90;;;;;;5033365;28;20417;-83
2020/12/10 09:39:35;;;;;;;29.33;12.02;;;3.50;99.90;;;;;;5035643;28;20123;-84
2020/12/10 09:42:03;;;;;;;26.00;12.65;;;3.50;99.90;;;;;;5043227;28;20105;-86
2020/12/10 09:44:30;;;;;;;34.70;15.75;;;3.50;99.90;;;;;;5041309;28;20045;-84
2020/12/10 09:46:56;;;;;;;26.08;11.95;;;3.50;99.90;;;;;;5040726;28;20065;-84
2020/12/10 09:49:23;;;;;;;31.67;16.33;;;3.60;99.90;;;;;;5040169;28;20056;-84
2020/12/10 09:51:54;;;;;;;29.30;11.27;;;3.50;99.90;;;;;;5039915;28;20049;-84
2020/12/10 09:59:34;;;;;;;22.10;11.23;;;3.90;99.90;;;;;;5039440;28;20183;-84
2020/12/10 10:02:00;;;;;;;19.25;10.35;;;4.10;99.90;;;;;;5038251;28;20072;-84
2020/12/10 10:04:27;;;;;;;16.85;8.98;;;4.20;99.90;;;;;;5038998;28;20053;-84
2020/12/10 10:06:54;;;;;;;20.85;9.40;;;4.20;99.90;;;;;;5037342;28;20056;-84
2020/12/10 10:09:21;;;;;;;17.55;9.30;;;4.30;99.90;;;;;;5036649;28;20077;-84
2020/12/10 10:11:47;;;;;;;13.63;8.32;;;4.50;99.90;;;;;;5036170;28;20087;-83
2020/12/10 10:14:13;;;;;;;18.08;8.32;;;4.60;99.90;;;;;;5036623;28;20052;-84
2020/12/10 10:16:39;;;;;;;14.25;7.97;;;4.60;99.90;;;;;;5037482;28;20147;-83
2020/12/10 10:19:06;;;;;;;14.93;7.93;;;4.60;99.90;;;;;;5036630;28;20049;-84
2020/12/10 10:21:32;;;;;;;16.77;8.40;;;4.60;99.90;;;;;;5034811;28;20056;-83
2020/12/10 10:23:58;;;;;;;13.77;6.95;;;4.60;99.90;;;;;;5034397;28;20072;-83
2020/12/10 10:26:24;;;;;;;11.93;7.22;;;4.70;99.90;;;;;;5036194;28;20052;-84
2020/12/10 10:28:53;;;;;;;16.42;8.77;;;4.70;99.90;;;;;;5036073;28;20652;-84
2020/12/10 10:31:20;;;;;;;13.32;8.20;;;4.90;99.90;;;;;;5036061;28;20467;-83
2020/12/10 10:33:46;;;;;;;18.08;10.15;;;5.00;99.90;;;;;;5034852;28;20461;-84
2020/12/10 10:36:13;;;;;;;17.48;10.23;;;5.00;99.90;;;;;;5033833;28;20502;-83
2020/12/10 10:38:40;;;;;;;13.93;8.75;;;5.10;99.90;;;;;;5035804;28;20069;-83
2020/12/10 10:41:06;;;;;;;15.32;10.27;;;5.10;99.90;;;;;;5033703;28;20548;-83
2020/12/10 10:43:35;;;;;;;19.52;10.70;;;4.90;99.90;;;;;;5033842;28;20045;-83
2020/12/10 10:46:02;;;;;;;19.40;11.30;;;4.50;99.90;;;;;;5034223;28;20068;-83
2020/12/10 10:48:28;;;;;;;29.60;17.40;;;4.40;99.90;;;;;;5033384;28;20045;-83
2020/12/10 10:50:55;;;;;;;34.22;18.55;;;4.10;99.90;;;;;;5033745;28;20073;-83
2020/12/10 10:53:21;;;;;;;27.40;16.48;;;4.00;99.90;;;;;;5033822;28;20054;-83
2020/12/10 10:55:49;;;;;;;30.83;15.77;;;4.00;99.90;;;;;;5033047;28;20061;-83
2020/12/10 10:58:16;;;;;;;22.63;12.68;;;4.00;99.90;;;;;;5032791;28;20140;-83
2020/12/10 11:00:45;;;;;;;26.40;13.02;;;4.00;99.90;;;;;;5032734;28;20425;-83
2020/12/10 11:03:12;;;;;;;29.70;15.30;;;4.20;99.90;;;;;;5036283;28;20053;-83
2020/12/10 11:05:38;;;;;;;25.35;13.20;;;4.30;99.90;;;;;;5036990;28;20157;-83
2020/12/10 11:08:04;;;;;;;20.90;11.45;;;4.30;99.90;;;;;;5036642;28;20080;-83
2020/12/10 11:10:31;;;;;;;23.63;10.50;;;4.40;99.90;;;;;;5036490;28;20417;-83
2020/12/10 11:12:57;;;;;;;19.67;10.18;;;4.40;99.90;;;;;;5037153;28;20053;-83
2020/12/10 11:15:23;;;;;;;24.55;12.07;;;4.30;99.90;;;;;;5036563;28;20073;-84
2020/12/10 11:17:50;;;;;;;22.40;11.95;;;4.50;99.90;;;;;;5037691;28;20056;-83
2020/12/10 11:20:16;;;;;;;19.83;12.40;;;4.40;99.90;;;;;;5036460;28;20045;-83
2020/12/10 11:22:42;;;;;;;20.23;11.63;;;4.60;99.90;;;;;;5037380;28;20120;-83
2020/12/10 11:25:09;;;;;;;20.33;10.95;;;4.90;99.90;;;;;;5035827;28;20140;-83
2020/12/10 11:27:35;;;;;;;29.20;16.80;;;5.00;99.90;;;;;;5036592;28;20125;-84
2020/12/10 11:30:04;;;;;;;20.52;11.15;;;5.00;99.90;;;;;;5036012;28;20453;-83
2020/12/10 11:32:31;;;;;;;16.55;9.60;;;5.20;99.90;;;;;;5044220;28;20053;-85
2020/12/10 11:34:57;;;;;;;14.60;9.55;;;5.30;99.90;;;;;;5045552;28;20073;-85
2020/12/10 11:37:24;;;;;;;15.98;9.00;;;5.40;99.90;;;;;;5046063;28;20060;-84
2020/12/10 11:39:54;;;;;;;18.83;9.80;;;5.40;99.90;;;;;;5045589;28;20069;-84
2020/12/10 11:42:21;;;;;;;13.80;9.00;;;5.40;99.90;;;;;;5045328;28;20045;-84
2020/12/10 11:44:49;;;;;;;13.32;8.43;;;5.50;99.90;;;;;;5044323;28;20131;-84
2020/12/10 11:47:16;;;;;;;14.43;8.80;;;5.50;99.90;;;;;;5042427;28;20053;-84
2020/12/10 11:49:42;;;;;;;23.85;14.48;;;5.50;99.90;;;;;;5042489;28;20571;-84
2020/12/10 11:52:08;;;;;;;17.52;9.07;;;5.60;99.90;;;;;;5041448;28;20053;-84
2020/12/10 11:54:35;;;;;;;13.63;9.20;;;5.60;99.90;;;;;;5041879;28;20056;-84
2020/12/10 11:57:01;;;;;;;13.40;9.45;;;5.50;99.90;;;;;;5041016;28;20050;-83
2020/12/10 11:59:28;;;;;;;23.60;15.82;;;5.40;99.90;;;;;;5039800;28;20494;-83
2020/12/10 12:01:54;;;;;;;23.52;14.40;;;5.40;99.90;;;;;;5038795;28;20049;-83
2020/12/10 12:04:20;;;;;;;10.77;8.70;;;5.20;99.90;;;;;;5035064;28;20107;-84
2020/12/10 12:06:47;;;;;;;14.18;8.93;;;5.10;99.90;;;;;;5035510;28;20571;-84
2020/12/10 12:09:13;;;;;;;15.90;8.90;;;5.10;99.90;;;;;;5035272;28;20395;-84
2020/12/10 12:11:40;;;;;;;19.55;13.63;;;4.90;99.90;;;;;;5034115;28;20050;-85
2020/12/10 12:14:07;;;;;;;21.00;15.07;;;4.90;99.90;;;;;;5034756;28;20049;-84
2020/12/10 12:16:33;;;;;;;17.48;12.00;;;4.90;99.90;;;;;;5033658;28;20486;-84
2020/12/10 12:18:59;;;;;;;134.55;58.78;;;4.80;99.90;;;;;;5035125;28;20068;-84
2020/12/10 12:21:27;;;;;;;76.45;34.38;;;4.60;99.90;;;;;;5033568;28;20045;-84
2020/12/10 12:23:54;;;;;;;21.33;12.45;;;4.50;99.90;;;;;;5034856;28;20049;-84
2020/12/10 12:26:31;;;;;;;185.52;65.78;;;4.60;99.90;;;;;;5034887;28;20056;-84
2020/12/10 12:28:58;;;;;;;29.05;14.85;;;4.60;99.90;;;;;;5035062;28;20140;-84
2020/12/10 12:31:28;;;;;;;59.05;25.52;;;4.70;99.90;;;;;;5034380;28;20475;-84
2020/12/10 12:34:03;;;;;;;206.77;59.10;;;4.90;99.90;;;;;;5034501;28;20052;-84
2020/12/10 12:36:30;;;;;;;168.07;54.50;;;4.90;99.90;;;;;;5033206;28;20091;-84
2020/12/10 12:38:56;;;;;;;78.63;27.60;;;5.00;99.90;;;;;;5034704;28;20137;-84
2020/12/10 12:41:30;;;;;;;81.13;26.23;;;5.00;99.90;;;;;;5033990;28;20504;-84
2020/12/10 12:43:58;;;;;;;26.73;14.38;;;4.80;99.90;;;;;;5034355;28;20064;-84
2020/12/10 12:46:25;;;;;;;18.92;12.25;;;4.80;99.90;;;;;;5032990;28;20061;-84
2020/12/10 12:48:55;;;;;;;116.07;63.53;;;4.80;99.90;;;;;;5034309;28;20107;-84
2020/12/10 12:51:22;;;;;;;40.42;24.50;;;4.60;99.90;;;;;;5034026;28;20128;-84